createdAt,value
2022-08-30T00:01:36.786Z,2.05
2022-08-30T00:04:24.522Z,1.73
2022-08-30T00:07:18.749Z,2.00
2022-08-30T00:10:06.543Z,2.20
2022-08-30T00:12:59.731Z,1.75
2022-08-30T00:15:47.289Z,1.88
2022-08-30T00:18:42.882Z,2.17
2022-08-30T00:21:30.852Z,1.90
2022-08-30T00:24:24.767Z,1.92
2022-08-30T00:27:18.735Z,1.92
2022-08-30T00:30:13.908Z,2.28
2022-08-30T00:33:01.067Z,2.17
2022-08-30T00:35:54.739Z,2.50
2022-08-30T00:38:48.810Z,2.28
2022-08-30T00:41:37.282Z,2.03
2022-08-30T00:44:30.819Z,2.30
2022-08-30T00:47:18.819Z,2.08
2022-08-30T00:50:14.876Z,2.35
2022-08-30T00:53:05.989Z,2.38
2022-08-30T00:56:00.790Z,2.42
2022-08-30T00:58:53.144Z,2.22
2022-08-30T01:01:46.946Z,2.67
2022-08-30T01:04:35.246Z,2.40
2022-08-30T01:07:29.027Z,2.30
2022-08-30T01:10:17.409Z,2.38
2022-08-30T01:13:11.870Z,2.40
2022-08-30T01:16:06.920Z,2.35
2022-08-30T01:18:58.085Z,2.30
2022-08-30T01:22:05.806Z,2.20
2022-08-30T01:24:56.883Z,2.80
2022-08-30T01:27:56.827Z,2.50
2022-08-30T01:30:44.777Z,2.00
2022-08-30T01:33:38.841Z,2.38
2022-08-30T01:36:26.046Z,2.15
2022-08-30T01:39:24.950Z,2.60
2022-08-30T01:42:13.045Z,2.55
2022-08-30T01:45:06.917Z,2.22
2022-08-30T01:48:03.736Z,2.50
2022-08-30T01:50:53.796Z,2.60
2022-08-30T01:53:49.949Z,2.42
2022-08-30T01:56:37.255Z,2.30
2022-08-30T01:59:30.907Z,2.55
2022-08-30T02:02:21.762Z,2.60
2022-08-30T02:05:15.901Z,2.80
2022-08-30T02:08:03.603Z,2.95
2022-08-30T02:10:56.897Z,2.85
2022-08-30T02:13:45.477Z,2.67
2022-08-30T02:16:47.039Z,2.80
2022-08-30T02:19:34.200Z,3.28
2022-08-30T02:22:28.083Z,3.38
2022-08-30T02:25:21.207Z,2.50
2022-08-30T02:28:15.929Z,3.47
2022-08-30T02:31:05.897Z,3.40
2022-08-30T02:33:59.955Z,3.00
2022-08-30T02:36:47.798Z,3.17
2022-08-30T02:39:41.002Z,3.38
2022-08-30T02:42:28.125Z,2.55
2022-08-30T02:45:22.002Z,3.28
2022-08-30T02:48:09.642Z,4.20
2022-08-30T02:51:03.083Z,3.88
2022-08-30T02:53:50.447Z,5.00
2022-08-30T02:56:44.026Z,4.07
2022-08-30T02:59:31.647Z,3.63
2022-08-30T03:02:24.987Z,4.78
2022-08-30T03:05:19.983Z,4.10
2022-08-30T03:08:14.994Z,4.65
2022-08-30T03:11:02.753Z,3.65
2022-08-30T03:13:56.999Z,4.35
2022-08-30T03:16:44.249Z,3.90
2022-08-30T03:19:37.996Z,4.22
2022-08-30T03:22:25.127Z,3.55
2022-08-30T03:25:19.054Z,4.20
2022-08-30T03:28:06.810Z,3.80
2022-08-30T03:31:01.029Z,4.10
2022-08-30T03:33:48.119Z,4.22
2022-08-30T03:36:42.160Z,3.78
2022-08-30T03:39:29.265Z,3.60
2022-08-30T03:42:23.171Z,4.40
2022-08-30T03:45:13.002Z,4.88
2022-08-30T03:48:09.064Z,4.20
2022-08-30T03:50:56.489Z,7.10
2022-08-30T03:53:50.242Z,5.10
2022-08-30T03:56:37.454Z,4.63
2022-08-30T03:59:32.076Z,3.88
2022-08-30T04:02:19.790Z,4.07
2022-08-30T04:05:18.704Z,5.63
2022-08-30T04:08:07.055Z,5.00
2022-08-30T04:11:03.190Z,5.10
2022-08-30T04:13:53.352Z,5.50
2022-08-30T04:16:47.144Z,5.95
2022-08-30T04:19:41.111Z,5.43
2022-08-30T04:22:28.455Z,5.63
2022-08-30T04:25:22.140Z,5.03
2022-08-30T04:28:09.927Z,6.25
2022-08-30T04:31:03.222Z,5.20
2022-08-30T04:33:50.395Z,4.47
2022-08-30T04:36:48.293Z,4.63
2022-08-30T04:39:35.665Z,5.40
2022-08-30T04:42:29.177Z,4.93
2022-08-30T04:45:17.416Z,5.40
2022-08-30T04:48:11.136Z,5.38
2022-08-30T04:51:05.158Z,6.05
2022-08-30T04:53:52.264Z,5.43
2022-08-30T04:56:46.172Z,4.80
2022-08-30T04:59:33.650Z,5.30
2022-08-30T05:02:28.412Z,5.47
2022-08-30T05:05:34.327Z,5.25
2022-08-30T05:08:29.586Z,6.10
2022-08-30T05:11:17.342Z,5.35
2022-08-30T05:14:12.213Z,5.10
2022-08-30T05:16:59.364Z,4.88
2022-08-30T05:19:53.180Z,4.65
2022-08-30T05:22:50.006Z,4.78
2022-08-30T05:25:49.402Z,4.85
2022-08-30T05:28:36.729Z,4.22
2022-08-30T05:31:37.371Z,3.83
2022-08-30T05:34:24.608Z,5.10
2022-08-30T05:37:18.248Z,5.05
2022-08-30T05:40:07.452Z,4.93
2022-08-30T05:43:05.276Z,4.63
2022-08-30T05:46:06.873Z,5.05
2022-08-30T05:49:01.229Z,5.35
2022-08-30T05:51:48.317Z,6.93
2022-08-30T05:54:42.282Z,4.85
2022-08-30T05:57:33.352Z,5.10
2022-08-30T06:00:29.330Z,6.00
2022-08-30T06:03:16.484Z,4.82
2022-08-30T06:06:10.321Z,4.40
2022-08-30T06:08:58.018Z,5.15
2022-08-30T06:11:53.371Z,4.00
2022-08-30T06:14:40.720Z,4.57
2022-08-30T06:17:34.288Z,3.60
2022-08-30T06:20:21.486Z,3.13
2022-08-30T06:23:16.347Z,3.05
2022-08-30T06:26:07.577Z,2.90
2022-08-30T06:29:03.499Z,3.47
2022-08-30T06:31:50.877Z,3.05
2022-08-30T06:34:44.401Z,2.80
2022-08-30T06:37:33.052Z,2.45
2022-08-30T06:40:28.428Z,2.45
2022-08-30T06:43:22.345Z,3.15
2022-08-30T06:46:13.883Z,3.45
2022-08-30T06:49:08.472Z,2.08
2022-08-30T06:51:55.667Z,2.17
2022-08-30T06:54:49.363Z,2.10
2022-08-30T06:57:38.776Z,2.28
2022-08-30T07:00:32.375Z,3.50
2022-08-30T07:03:26.407Z,2.88
2022-08-30T07:06:14.314Z,2.22
2022-08-30T07:09:08.343Z,1.90
2022-08-30T07:12:03.089Z,2.20
2022-08-30T07:14:56.474Z,2.70
2022-08-30T07:18:02.029Z,2.60
2022-08-30T07:20:55.384Z,1.83
2022-08-30T07:23:43.909Z,1.60
2022-08-30T07:26:41.438Z,2.25
2022-08-30T07:29:28.589Z,1.52
2022-08-30T07:32:22.414Z,1.70
2022-08-30T07:35:23.541Z,1.48
2022-08-30T07:38:13.748Z,1.10
2022-08-30T07:41:07.501Z,1.10
2022-08-30T07:43:56.162Z,1.20
2022-08-30T07:46:50.467Z,0.80
2022-08-30T07:49:38.107Z,1.00
2022-08-30T07:52:31.444Z,0.90
2022-08-30T07:55:25.497Z,1.20
2022-08-30T07:58:19.580Z,1.20
2022-08-30T08:01:09.143Z,1.10
2022-08-30T08:04:02.468Z,1.25
2022-08-30T08:06:56.498Z,0.80
2022-08-30T08:09:43.655Z,1.00
2022-08-30T08:12:37.487Z,1.10
2022-08-30T08:15:26.329Z,1.20
2022-08-30T08:18:20.475Z,0.93
2022-08-30T08:21:14.508Z,1.08
2022-08-30T08:24:08.534Z,0.90
2022-08-30T08:26:56.322Z,0.90
2022-08-30T08:29:50.506Z,0.90
2022-08-30T08:32:37.734Z,1.15
2022-08-30T08:35:31.497Z,1.13
2022-08-30T08:38:18.864Z,1.20
2022-08-30T08:41:30.597Z,0.95
2022-08-30T08:44:34.651Z,0.93
2022-08-30T08:47:46.501Z,1.17
2022-08-30T08:53:48.629Z,0.80
2022-08-30T08:56:37.640Z,1.00
2022-08-30T08:59:31.528Z,0.77
2022-08-30T09:02:41.785Z,0.77
2022-08-30T09:05:41.551Z,0.88
2022-08-30T09:08:28.698Z,0.70
2022-08-30T09:11:30.742Z,0.75
2022-08-30T09:14:22.849Z,0.80
2022-08-30T09:17:18.554Z,0.70
2022-08-30T09:20:12.611Z,0.85
2022-08-30T09:23:10.864Z,1.08
2022-08-30T09:26:13.626Z,0.70
2022-08-30T09:29:07.556Z,0.75
2022-08-30T09:32:22.614Z,1.10
2022-08-30T09:35:09.641Z,1.05
2022-08-30T09:38:10.624Z,1.00
2022-08-30T09:41:28.674Z,0.80
2022-08-30T09:44:31.700Z,0.75
2022-08-30T09:47:29.539Z,0.90
2022-08-30T09:50:29.725Z,0.95
2022-08-30T09:53:29.659Z,0.90
2022-08-30T09:56:45.607Z,1.10
2022-08-30T10:00:20.634Z,1.10
2022-08-30T10:03:34.911Z,0.80
2022-08-30T10:06:58.719Z,0.80
2022-08-30T10:10:17.261Z,1.13
2022-08-30T10:13:22.666Z,1.10
2022-08-30T10:16:53.714Z,0.90
2022-08-30T10:20:16.644Z,1.05
2022-08-30T10:23:36.666Z,1.30
2022-08-30T10:26:26.516Z,1.00
2022-08-30T10:29:43.307Z,0.90
2022-08-30T10:32:52.685Z,1.20
2022-08-30T10:35:53.760Z,1.38
2022-08-30T10:38:49.615Z,1.00
2022-08-30T10:41:45.699Z,1.00
2022-08-30T10:44:41.213Z,0.98
2022-08-30T10:47:54.692Z,0.90
2022-08-30T10:50:47.824Z,1.00
2022-08-30T10:53:54.695Z,0.85
2022-08-30T10:56:43.407Z,0.88
2022-08-30T10:59:37.703Z,1.00
2022-08-30T11:02:57.732Z,1.13
2022-08-30T11:06:09.782Z,1.00
2022-08-30T11:09:35.909Z,1.10
2022-08-30T11:13:08.777Z,1.38
2022-08-30T11:16:13.830Z,1.30
2022-08-30T11:19:01.193Z,1.27
2022-08-30T11:21:56.803Z,1.38
2022-08-30T11:25:38.245Z,1.20
2022-08-30T11:28:37.839Z,1.33
2022-08-30T11:31:46.831Z,1.17
2022-08-30T11:34:59.540Z,1.20
2022-08-30T11:37:55.842Z,1.60
2022-08-30T11:41:11.796Z,1.10
2022-08-30T11:44:39.863Z,1.10
2022-08-30T11:48:00.061Z,1.05
2022-08-30T11:51:12.828Z,1.20
2022-08-30T11:54:13.821Z,1.00
2022-08-30T11:57:44.812Z,1.10
2022-08-30T12:00:51.439Z,1.30
2022-08-30T12:03:41.406Z,1.30
2022-08-30T12:06:54.806Z,1.40
2022-08-30T12:09:45.075Z,1.50
2022-08-30T12:12:44.903Z,1.17
2022-08-30T12:15:57.047Z,1.02
2022-08-30T12:18:52.812Z,1.40
2022-08-30T12:21:43.888Z,1.17
2022-08-30T12:24:46.854Z,1.20
2022-08-30T12:27:34.501Z,1.10
2022-08-30T12:30:34.847Z,1.42
2022-08-30T12:33:41.335Z,1.10
2022-08-30T12:36:45.904Z,1.13
2022-08-30T12:39:40.056Z,1.40
2022-08-30T12:42:37.872Z,1.08
2022-08-30T12:45:44.884Z,1.30
2022-08-30T12:48:48.066Z,1.30
2022-08-30T12:51:41.533Z,1.08
2022-08-30T12:54:37.898Z,1.05
2022-08-30T12:57:48.001Z,1.13
2022-08-30T13:00:48.080Z,1.30
2022-08-30T13:03:36.938Z,1.13
2022-08-30T13:06:50.974Z,1.17
2022-08-30T13:09:48.014Z,1.10
2022-08-30T13:12:44.934Z,1.20
2022-08-30T13:15:42.102Z,1.10
2022-08-30T13:18:36.971Z,1.20
2022-08-30T13:21:34.933Z,1.08
2022-08-30T13:24:29.923Z,1.00
2022-08-30T13:27:18.121Z,1.02
2022-08-30T13:30:16.958Z,1.10
2022-08-30T13:33:04.335Z,1.10
2022-08-30T13:35:59.988Z,1.00
2022-08-30T13:38:54.041Z,1.10
2022-08-30T13:41:41.587Z,1.20
2022-08-30T13:44:34.967Z,1.10
2022-08-30T13:47:37.624Z,1.25
2022-08-30T13:50:31.087Z,1.23
2022-08-30T13:56:32.280Z,1.15
2022-08-30T13:59:27.040Z,0.95
2022-08-30T14:02:20.995Z,1.10
2022-08-30T14:05:37.486Z,1.40
2022-08-30T14:08:53.527Z,1.30
2022-08-30T14:11:41.429Z,1.00
2022-08-30T14:14:42.658Z,1.48
2022-08-30T14:17:32.742Z,1.23
2022-08-30T14:20:27.050Z,1.45
2022-08-30T14:23:14.729Z,1.30
2022-08-30T14:26:14.033Z,1.20
2022-08-30T14:29:13.057Z,1.50
2022-08-30T14:32:07.132Z,1.20
2022-08-30T14:35:01.120Z,1.02
2022-08-30T14:37:49.346Z,0.93
2022-08-30T14:40:43.110Z,1.13
2022-08-30T14:43:37.084Z,1.10
2022-08-30T14:46:33.088Z,1.00
2022-08-30T14:49:29.057Z,1.30
2022-08-30T14:52:16.282Z,1.20
2022-08-30T14:55:14.100Z,1.50
2022-08-30T14:58:01.629Z,1.30
2022-08-30T15:00:59.116Z,1.42
2022-08-30T15:03:47.436Z,1.27
2022-08-30T15:06:43.113Z,1.15
2022-08-30T15:09:39.146Z,1.17
2022-08-30T15:12:26.305Z,1.23
2022-08-30T15:15:23.169Z,1.30
2022-08-30T15:18:10.507Z,1.20
2022-08-30T15:21:04.113Z,1.48
2022-08-30T15:23:52.500Z,1.23
2022-08-30T15:26:50.126Z,1.20
2022-08-30T15:29:44.144Z,1.20
2022-08-30T15:32:32.040Z,1.10
2022-08-30T15:35:26.249Z,1.40
2022-08-30T15:38:13.616Z,1.40
2022-08-30T15:41:12.150Z,1.52
2022-08-30T15:43:59.738Z,1.40
2022-08-30T15:46:53.231Z,1.45
2022-08-30T15:49:47.181Z,1.55
2022-08-30T15:52:34.359Z,1.27
2022-08-30T15:55:28.187Z,1.15
2022-08-30T15:58:15.490Z,1.00
2022-08-30T16:01:12.174Z,1.00
2022-08-30T16:04:06.192Z,1.15
2022-08-30T16:06:53.834Z,1.10
2022-08-30T16:09:48.284Z,1.27
2022-08-30T16:12:42.295Z,1.17
2022-08-30T16:15:30.196Z,1.10
2022-08-30T16:18:24.220Z,1.45
2022-08-30T16:21:20.816Z,1.13
2022-08-30T16:24:16.215Z,1.20
2022-08-30T16:27:11.219Z,1.15
2022-08-30T16:29:58.437Z,1.20
2022-08-30T16:32:52.221Z,1.23
2022-08-30T16:35:39.339Z,1.10
2022-08-30T16:38:34.265Z,1.00
2022-08-30T16:41:29.247Z,1.20
2022-08-30T16:44:29.811Z,1.00
2022-08-30T16:47:17.741Z,0.80
2022-08-30T16:50:12.293Z,1.00
2022-08-30T16:53:06.301Z,1.02
2022-08-30T16:55:55.115Z,1.10
2022-08-30T16:58:52.834Z,1.00
2022-08-30T17:01:50.330Z,1.08
2022-08-30T17:04:44.317Z,0.90
2022-08-30T17:07:31.399Z,0.75
2022-08-30T17:10:26.306Z,0.80
2022-08-30T17:13:20.801Z,0.85
2022-08-30T17:16:22.770Z,1.20
2022-08-30T17:19:26.290Z,1.10
2022-08-30T17:22:21.415Z,0.95
2022-08-30T17:25:15.286Z,0.98
2022-08-30T17:28:02.794Z,0.88
2022-08-30T17:30:57.325Z,0.93
2022-08-30T17:33:51.329Z,0.90
2022-08-30T17:36:38.775Z,1.92
2022-08-30T17:39:33.344Z,1.88
2022-08-30T17:42:27.371Z,1.52
2022-08-30T17:45:17.878Z,1.13
2022-08-30T17:48:13.411Z,1.00
2022-08-30T17:51:07.884Z,1.15
2022-08-30T17:54:01.639Z,0.98
2022-08-30T17:56:48.836Z,1.00
2022-08-30T17:59:42.446Z,1.10
2022-08-30T18:02:36.424Z,1.10
2022-08-30T18:05:25.500Z,1.17
2022-08-30T18:08:19.605Z,1.00
2022-08-30T18:11:07.276Z,1.45
2022-08-30T18:14:07.376Z,1.20
2022-08-30T18:17:04.367Z,1.00
2022-08-30T18:19:52.259Z,0.90
2022-08-30T18:22:46.385Z,1.02
2022-08-30T18:25:33.522Z,1.00
2022-08-30T18:28:28.425Z,1.00
2022-08-30T18:31:29.398Z,0.88
2022-08-30T18:34:16.538Z,0.82
2022-08-30T18:37:11.513Z,0.88
2022-08-30T18:40:00.039Z,1.20
2022-08-30T18:42:54.422Z,1.17
2022-08-30T18:45:55.467Z,1.20
2022-08-30T18:48:49.450Z,1.02
2022-08-30T18:51:37.771Z,0.95
2022-08-30T18:54:31.427Z,1.20
2022-08-30T18:57:19.073Z,1.33
2022-08-30T19:00:13.499Z,0.98
2022-08-30T19:03:01.884Z,1.10
2022-08-30T19:05:55.446Z,1.00
2022-08-30T19:08:45.815Z,1.30
2022-08-30T19:11:39.492Z,1.10
2022-08-30T19:14:28.197Z,0.85
2022-08-30T19:17:22.526Z,1.38
2022-08-30T19:20:20.517Z,1.00
2022-08-30T19:23:14.515Z,1.30
2022-08-30T19:26:08.547Z,0.98
2022-08-30T19:29:04.503Z,1.10
2022-08-30T19:35:05.564Z,1.00
2022-08-30T19:37:59.590Z,1.00
2022-08-30T19:40:49.086Z,1.20
2022-08-30T19:43:46.566Z,1.10
2022-08-30T19:46:34.078Z,0.95
2022-08-30T19:49:29.626Z,1.42
2022-08-30T19:52:25.758Z,1.13
2022-08-30T19:55:28.758Z,1.27
2022-08-30T19:58:24.592Z,1.20
2022-08-30T20:01:32.989Z,1.30
2022-08-30T20:04:27.573Z,1.30
2022-08-30T20:07:27.818Z,1.40
2022-08-30T20:10:16.096Z,1.05
2022-08-30T20:13:11.782Z,1.20
2022-08-30T20:16:05.591Z,1.33
2022-08-30T20:18:59.577Z,1.30
2022-08-30T20:21:47.209Z,1.13
2022-08-30T20:24:44.655Z,1.58
2022-08-30T20:27:31.830Z,1.42
2022-08-30T20:30:25.599Z,1.58
2022-08-30T20:33:20.587Z,1.30
2022-08-30T20:36:17.612Z,1.10
2022-08-30T20:39:17.608Z,1.42
2022-08-30T20:42:11.683Z,1.23
2022-08-30T20:45:05.671Z,1.45
2022-08-30T20:47:59.703Z,1.13
2022-08-30T20:50:53.622Z,1.63
2022-08-30T20:53:41.155Z,1.50
2022-08-30T20:56:35.653Z,1.70
2022-08-30T20:59:22.910Z,1.60
2022-08-30T21:02:16.733Z,1.70
2022-08-30T21:05:05.463Z,1.30
2022-08-30T21:07:59.712Z,1.60
2022-08-30T21:10:47.992Z,1.80
2022-08-30T21:13:42.696Z,1.20
2022-08-30T21:16:29.945Z,1.70
2022-08-30T21:19:23.733Z,1.70
2022-08-30T21:22:17.686Z,1.70
2022-08-30T21:25:12.714Z,1.85
2022-08-30T21:28:06.744Z,1.60
2022-08-30T21:31:18.743Z,1.60
2022-08-30T21:34:19.691Z,1.60
2022-08-30T21:37:13.713Z,1.20
2022-08-30T21:40:07.834Z,2.15
2022-08-30T21:42:56.017Z,1.20
2022-08-30T21:45:50.836Z,1.40
2022-08-30T21:48:44.769Z,1.67
2022-08-30T21:51:41.747Z,1.55
2022-08-30T21:54:31.669Z,1.30
2022-08-30T21:57:25.720Z,1.20
2022-08-30T22:00:25.890Z,1.25
2022-08-30T22:03:19.981Z,1.10
2022-08-30T22:06:07.255Z,1.35
2022-08-30T22:09:01.786Z,1.17
2022-08-30T22:11:56.804Z,1.15
2022-08-30T22:14:43.926Z,1.13
2022-08-30T22:17:38.829Z,1.30
2022-08-30T22:20:25.971Z,1.15
2022-08-30T22:23:24.821Z,1.10
2022-08-30T22:26:13.498Z,1.10
2022-08-30T22:29:07.788Z,1.30
2022-08-30T22:32:01.893Z,1.23
2022-08-30T22:34:56.816Z,1.20
2022-08-30T22:37:47.728Z,1.20
2022-08-30T22:40:58.807Z,1.10
2022-08-30T22:43:52.808Z,1.40
2022-08-30T22:46:46.819Z,1.33
2022-08-30T22:49:34.348Z,1.10
2022-08-30T22:52:27.841Z,1.23
2022-08-30T22:55:15.006Z,0.95
2022-08-30T22:58:08.845Z,1.45
2022-08-30T23:00:56.388Z,1.00
2022-08-30T23:03:49.878Z,1.17
2022-08-30T23:06:49.795Z,1.05
2022-08-30T23:09:43.810Z,1.33
2022-08-30T23:12:37.885Z,1.00
2022-08-30T23:15:25.669Z,1.02
2022-08-30T23:18:18.902Z,1.35
2022-08-30T23:21:15.896Z,1.20
2022-08-30T23:24:28.866Z,1.00
2022-08-30T23:30:46.979Z,1.10
2022-08-30T23:33:52.755Z,1.20
2022-08-30T23:37:04.860Z,1.10
2022-08-30T23:40:10.638Z,1.20
2022-08-30T23:43:22.928Z,0.82
2022-08-30T23:46:28.407Z,1.15
2022-08-30T23:49:40.905Z,1.00
2022-08-30T23:52:46.844Z,0.93
2022-08-30T23:56:03.904Z,0.85
2022-08-30T23:59:15.976Z,1.27
